Time;durP1;ratioP1;P1;durP2;ratioP2;P2;SDS_P1;SDS_P2;PMS_P1;PMS_P2;Temp;Humidity;BMP_temperature;BMP_pressure;BME280_temperature;BME280_humidity;BME280_pressure;Samples;Min_cycle;Max_cycle;Signal;HPM_P1;HPM_P2
2021/03/22 00:02:19;;;;;;;23.85;4.53;;;;;;;;;;5094702;28;20048;-65
2021/03/22 00:05:05;;;;;;;21.40;4.70;;;;;;;;;;5093418;28;20052;-65
2021/03/22 00:07:51;;;;;;;19.50;5.45;;;;;;;;;;5081555;28;20119;-65
2021/03/22 00:10:37;;;;;;;21.70;4.32;;;;;;;;;;5090708;28;20048;-65
2021/03/22 00:13:23;;;;;;;21.20;5.32;;;;;;;;;;5088957;28;20041;-65
2021/03/22 00:16:09;;;;;;;25.33;5.20;;;;;;;;;;5073845;28;20041;-65
2021/03/22 00:18:54;;;;;;;17.58;4.82;;;;;;;;;;5073996;28;20044;-65
2021/03/22 00:21:39;;;;;;;20.45;4.97;;;;;;;;;;5072849;28;20499;-65
2021/03/22 00:24:24;;;;;;;27.10;5.15;;;;;;;;;;5079438;28;20048;-65
2021/03/22 00:27:10;;;;;;;23.80;5.82;;;;;;;;;;5073783;28;20041;-64
2021/03/22 00:29:55;;;;;;;26.45;5.80;;;;;;;;;;5073883;28;20437;-65
2021/03/22 00:32:41;;;;;;;26.75;5.45;;;;;;;;;;5073951;28;20049;-65
2021/03/22 00:35:27;;;;;;;23.20;5.80;;;;;;;;;;5077589;28;20696;-65
2021/03/22 00:38:12;;;;;;;24.83;5.93;;;;;;;;;;5093831;28;20406;-65
2021/03/22 00:40:57;;;;;;;24.58;5.88;;;;;;;;;;5094024;28;20127;-65
2021/03/22 00:43:42;;;;;;;26.05;6.50;;;;;;;;;;5093957;28;20044;-65
2021/03/22 00:46:28;;;;;;;30.83;6.28;;;;;;;;;;5093291;28;20134;-65
2021/03/22 00:49:13;;;;;;;21.25;5.63;;;;;;;;;;5093901;28;20050;-65
2021/03/22 00:51:58;;;;;;;28.17;8.82;;;;;;;;;;5093756;28;20044;-64
2021/03/22 00:54:44;;;;;;;27.02;6.38;;;;;;;;;;5093436;28;20048;-65
2021/03/22 00:57:29;;;;;;;20.80;6.72;;;;;;;;;;5093502;28;20047;-65
2021/03/22 01:00:38;;;;;;;30.30;7.50;;;;;;;;;;5093715;28;20055;-65
2021/03/22 01:03:26;;;;;;;28.95;7.00;;;;;;;;;;5093384;28;20494;-65
2021/03/22 01:06:12;;;;;;;24.90;6.78;;;;;;;;;;5092261;28;20036;-65
2021/03/22 01:08:57;;;;;;;25.33;6.35;;;;;;;;;;5092481;28;20044;-65
2021/03/22 01:11:42;;;;;;;27.05;6.95;;;;;;;;;;5093266;28;20406;-65
2021/03/22 01:14:28;;;;;;;27.35;6.55;;;;;;;;;;5093085;28;20127;-65
2021/03/22 01:17:13;;;;;;;25.17;6.85;;;;;;;;;;5089598;28;20502;-65
2021/03/22 01:19:59;;;;;;;22.33;7.38;;;;;;;;;;5093071;28;20047;-65
2021/03/22 01:22:44;;;;;;;23.83;7.22;;;;;;;;;;5093241;28;20048;-65
2021/03/22 01:25:29;;;;;;;24.23;6.85;;;;;;;;;;5092672;28;20044;-65
2021/03/22 01:28:15;;;;;;;24.73;7.22;;;;;;;;;;5092597;28;20048;-65
2021/03/22 01:31:00;;;;;;;29.27;7.50;;;;;;;;;;5092954;28;20044;-65
2021/03/22 01:33:49;;;;;;;25.95;7.82;;;;;;;;;;5092950;28;20044;-64
2021/03/22 01:36:35;;;;;;;27.13;7.72;;;;;;;;;;5092611;28;20105;-64
2021/03/22 01:39:27;;;;;;;26.70;7.60;;;;;;;;;;5092764;28;20052;-65
2021/03/22 01:42:26;;;;;;;27.40;8.07;;;;;;;;;;5091798;28;20052;-65
2021/03/22 01:45:12;;;;;;;23.42;8.05;;;;;;;;;;5091377;28;20036;-65
2021/03/22 01:47:57;;;;;;;22.48;7.43;;;;;;;;;;5091447;28;20107;-65
2021/03/22 01:50:42;;;;;;;23.05;8.07;;;;;;;;;;5081340;28;20045;-65
2021/03/22 01:53:27;;;;;;;28.25;7.85;;;;;;;;;;5099629;28;20060;-65
2021/03/22 01:56:25;;;;;;;24.25;6.63;;;;;;;;;;5072125;28;20040;-65
2021/03/22 01:59:10;;;;;;;33.17;7.63;;;;;;;;;;5082356;28;20056;-65
2021/03/22 02:01:56;;;;;;;27.95;6.57;;;;;;;;;;5090761;28;20052;-65
2021/03/22 02:04:41;;;;;;;29.23;6.75;;;;;;;;;;5094155;28;20075;-65
2021/03/22 02:07:27;;;;;;;24.60;6.90;;;;;;;;;;5098152;28;20040;-66
2021/03/22 02:10:12;;;;;;;27.58;6.40;;;;;;;;;;5097174;28;20056;-66
2021/03/22 02:12:57;;;;;;;24.13;7.35;;;;;;;;;;5098410;28;20048;-66
2021/03/22 02:15:43;;;;;;;26.83;7.32;;;;;;;;;;5096592;28;20044;-65
2021/03/22 02:18:31;;;;;;;19.23;6.40;;;;;;;;;;5096145;28;20095;-66
2021/03/22 02:21:35;;;;;;;24.63;7.63;;;;;;;;;;5097191;28;20687;-65
2021/03/22 02:24:26;;;;;;;28.15;6.75;;;;;;;;;;5098295;28;20040;-65
2021/03/22 02:27:23;;;;;;;25.05;6.78;;;;;;;;;;5098172;28;20044;-65
2021/03/22 02:30:27;;;;;;;25.45;7.72;;;;;;;;;;5095963;28;20040;-65
2021/03/22 02:33:15;;;;;;;26.42;7.72;;;;;;;;;;5097415;28;20044;-65
2021/03/22 02:36:13;;;;;;;26.33;7.88;;;;;;;;;;5097969;28;20498;-65
2021/03/22 02:38:59;;;;;;;21.48;7.20;;;;;;;;;;5083624;28;20040;-65
2021/03/22 02:41:52;;;;;;;21.48;6.85;;;;;;;;;;5078401;28;20441;-66
2021/03/22 02:44:37;;;;;;;18.48;5.60;;;;;;;;;;5076962;28;20408;-65
2021/03/22 02:47:22;;;;;;;26.50;6.00;;;;;;;;;;5078373;28;20098;-65
2021/03/22 02:50:10;;;;;;;26.27;6.05;;;;;;;;;;5084614;28;20052;-65
2021/03/22 02:53:14;;;;;;;20.83;6.22;;;;;;;;;;5096325;28;20044;-66
2021/03/22 02:56:15;;;;;;;19.23;4.93;;;;;;;;;;5098787;28;20048;-63
2021/03/22 02:59:06;;;;;;;19.70;4.80;;;;;;;;;;5098348;28;20052;-65
2021/03/22 03:01:55;;;;;;;26.67;6.50;;;;;;;;;;5096769;28;20386;-65
2021/03/22 03:04:40;;;;;;;20.33;5.60;;;;;;;;;;5094706;28;20044;-65
2021/03/22 03:07:26;;;;;;;16.63;3.97;;;;;;;;;;5097630;28;20044;-65
2021/03/22 03:10:12;;;;;;;18.88;4.82;;;;;;;;;;5097189;28;20040;-65
2021/03/22 03:12:57;;;;;;;14.02;4.57;;;;;;;;;;5095197;28;20044;-65
2021/03/22 03:15:42;;;;;;;17.95;3.83;;;;;;;;;;5095743;28;20118;-65
2021/03/22 03:18:28;;;;;;;12.55;2.22;;;;;;;;;;5096135;28;20405;-65
2021/03/22 03:21:13;;;;;;;14.55;2.80;;;;;;;;;;5095667;28;20486;-65
2021/03/22 03:23:59;;;;;;;9.38;2.45;;;;;;;;;;5073820;28;20049;-65
2021/03/22 03:26:44;;;;;;;14.70;2.75;;;;;;;;;;5073206;28;20040;-65
2021/03/22 03:29:30;;;;;;;9.75;2.85;;;;;;;;;;5073293;28;20041;-65
2021/03/22 03:32:16;;;;;;;11.82;2.58;;;;;;;;;;5080671;28;20036;-65
2021/03/22 03:35:01;;;;;;;17.48;2.67;;;;;;;;;;5098479;28;20036;-65
2021/03/22 03:37:47;;;;;;;16.05;2.75;;;;;;;;;;5098701;28;20055;-64
2021/03/22 03:40:34;;;;;;;10.40;2.40;;;;;;;;;;5098437;28;20105;-64
2021/03/22 03:43:19;;;;;;;12.07;2.45;;;;;;;;;;5089359;28;20040;-64
2021/03/22 03:46:04;;;;;;;14.35;3.33;;;;;;;;;;5079131;28;20052;-65
2021/03/22 03:48:50;;;;;;;9.10;2.95;;;;;;;;;;5081121;28;20060;-65
2021/03/22 03:51:36;;;;;;;11.25;2.42;;;;;;;;;;5081051;28;20044;-64
2021/03/22 03:54:21;;;;;;;12.13;3.20;;;;;;;;;;5096375;28;20111;-64
2021/03/22 03:57:07;;;;;;;12.48;2.88;;;;;;;;;;5100846;28;20067;-66
2021/03/22 03:59:52;;;;;;;13.23;2.65;;;;;;;;;;5102068;28;20418;-65
2021/03/22 04:02:38;;;;;;;10.30;2.58;;;;;;;;;;5102752;28;20534;-65
2021/03/22 04:05:23;;;;;;;16.85;2.95;;;;;;;;;;5101589;28;20051;-64
2021/03/22 04:08:09;;;;;;;11.23;3.25;;;;;;;;;;5102561;28;20044;-65
2021/03/22 04:10:55;;;;;;;8.77;2.42;;;;;;;;;;5102822;28;20486;-65
2021/03/22 04:13:40;;;;;;;10.60;2.83;;;;;;;;;;5098036;28;20040;-65
2021/03/22 04:16:26;;;;;;;14.18;2.28;;;;;;;;;;5080383;28;20044;-64
2021/03/22 04:19:11;;;;;;;14.43;3.25;;;;;;;;;;5083143;28;20045;-65
2021/03/22 04:21:57;;;;;;;17.23;4.88;;;;;;;;;;5082152;28;20486;-66
2021/03/22 04:24:42;;;;;;;9.35;2.13;;;;;;;;;;5088551;28;20060;-65
2021/03/22 04:27:27;;;;;;;14.75;2.78;;;;;;;;;;5098459;28;20167;-65
2021/03/22 04:30:13;;;;;;;7.38;2.42;;;;;;;;;;5100795;28;20040;-65
2021/03/22 04:32:59;;;;;;;12.50;2.40;;;;;;;;;;5100603;28;20052;-65
2021/03/22 04:35:44;;;;;;;8.75;1.98;;;;;;;;;;5083404;28;20041;-65
2021/03/22 04:38:29;;;;;;;16.23;2.97;;;;;;;;;;5080739;28;20048;-65
2021/03/22 04:41:15;;;;;;;10.88;2.42;;;;;;;;;;5079383;28;20495;-65
2021/03/22 04:44:01;;;;;;;15.73;2.50;;;;;;;;;;5107625;28;20044;-65
2021/03/22 04:46:46;;;;;;;9.60;2.30;;;;;;;;;;5096581;28;20036;-65
2021/03/22 04:49:31;;;;;;;9.02;2.65;;;;;;;;;;5100429;28;20043;-65
2021/03/22 04:52:17;;;;;;;14.48;3.22;;;;;;;;;;5099230;28;20044;-65
2021/03/22 04:55:02;;;;;;;6.88;1.77;;;;;;;;;;5101546;28;20040;-65
2021/03/22 04:57:47;;;;;;;13.35;2.35;;;;;;;;;;5101523;28;20044;-66
2021/03/22 05:00:39;;;;;;;8.77;2.10;;;;;;;;;;5101272;28;20471;-65
2021/03/22 05:03:24;;;;;;;13.40;2.55;;;;;;;;;;5101348;28;20044;-65
2021/03/22 05:06:09;;;;;;;13.48;2.38;;;;;;;;;;5100026;28;20040;-65
2021/03/22 05:08:56;;;;;;;7.43;1.90;;;;;;;;;;5099459;28;20040;-66
2021/03/22 05:11:41;;;;;;;18.30;2.33;;;;;;;;;;5090252;28;20060;-65
2021/03/22 05:14:27;;;;;;;10.10;3.03;;;;;;;;;;5079976;28;20067;-65
2021/03/22 05:17:12;;;;;;;15.05;2.65;;;;;;;;;;5080140;28;20491;-65
2021/03/22 05:19:58;;;;;;;8.75;2.42;;;;;;;;;;5079880;28;20053;-65
2021/03/22 05:22:43;;;;;;;11.35;3.03;;;;;;;;;;5091817;28;20036;-64
2021/03/22 05:25:29;;;;;;;10.05;1.75;;;;;;;;;;5096833;28;20378;-65
2021/03/22 05:28:14;;;;;;;11.55;2.20;;;;;;;;;;5096772;28;20044;-65
2021/03/22 05:30:59;;;;;;;11.45;2.10;;;;;;;;;;5096527;28;20052;-65
2021/03/22 05:33:45;;;;;;;12.43;3.28;;;;;;;;;;5094578;28;20036;-64
2021/03/22 05:36:30;;;;;;;12.05;2.33;;;;;;;;;;5095546;28;20048;-65
2021/03/22 05:39:16;;;;;;;18.42;2.55;;;;;;;;;;5096670;28;20036;-65
2021/03/22 05:42:04;;;;;;;15.00;3.00;;;;;;;;;;5093421;28;20438;-64
2021/03/22 05:44:53;;;;;;;15.85;2.78;;;;;;;;;;5103559;28;20044;-65
2021/03/22 05:48:02;;;;;;;9.13;2.47;;;;;;;;;;5106878;28;20048;-65
2021/03/22 05:50:59;;;;;;;11.23;2.25;;;;;;;;;;5079946;28;20044;-64
2021/03/22 05:53:49;;;;;;;11.60;2.55;;;;;;;;;;5091072;28;20036;-65
2021/03/22 05:56:37;;;;;;;8.52;3.13;;;;;;;;;;5078508;28;20128;-65
2021/03/22 05:59:24;;;;;;;11.98;2.60;;;;;;;;;;5079193;28;20060;-64
2021/03/22 06:02:16;;;;;;;16.42;2.90;;;;;;;;;;5124408;27;20119;-65
2021/03/22 06:05:21;;;;;;;17.30;2.58;;;;;;;;;;5082382;28;20045;-65
2021/03/22 06:08:12;;;;;;;16.35;2.97;;;;;;;;;;5080399;28;20052;-64
2021/03/22 06:10:57;;;;;;;14.10;3.20;;;;;;;;;;5092523;28;20040;-65
2021/03/22 06:13:43;;;;;;;12.20;2.67;;;;;;;;;;5097656;28;20486;-65
2021/03/22 06:16:30;;;;;;;11.32;2.38;;;;;;;;;;5081402;28;20044;-65
2021/03/22 06:19:16;;;;;;;14.43;3.45;;;;;;;;;;5093425;28;20048;-63
2021/03/22 06:22:01;;;;;;;10.95;2.72;;;;;;;;;;5091480;28;20040;-64
2021/03/22 06:24:46;;;;;;;14.25;2.60;;;;;;;;;;5087941;28;20048;-64
2021/03/22 06:27:32;;;;;;;13.07;2.42;;;;;;;;;;5089898;28;20033;-63
2021/03/22 06:30:19;;;;;;;13.35;3.03;;;;;;;;;;5080918;28;20419;-63
2021/03/22 06:33:04;;;;;;;12.43;2.17;;;;;;;;;;5110673;28;20495;-65
2021/03/22 06:35:50;;;;;;;11.05;2.60;;;;;;;;;;5098723;28;20411;-63
2021/03/22 06:38:35;;;;;;;13.10;2.22;;;;;;;;;;5071120;28;20498;-64
2021/03/22 06:41:33;;;;;;;12.52;2.75;;;;;;;;;;5071839;28;20041;-64
2021/03/22 06:44:20;;;;;;;14.00;2.63;;;;;;;;;;5072516;28;20048;-63
2021/03/22 06:47:05;;;;;;;10.32;2.42;;;;;;;;;;5117202;27;20510;-63
2021/03/22 06:49:54;;;;;;;14.35;3.03;;;;;;;;;;5089874;28;20048;-64
2021/03/22 06:52:41;;;;;;;11.40;2.47;;;;;;;;;;5071138;28;20052;-63
2021/03/22 06:55:39;;;;;;;9.52;2.63;;;;;;;;;;5071354;28;20045;-63
2021/03/22 06:58:27;;;;;;;12.55;3.13;;;;;;;;;;5071515;28;20044;-63
2021/03/22 07:01:21;;;;;;;14.55;2.28;;;;;;;;;;5080394;28;20048;-63
2021/03/22 07:04:17;;;;;;;14.85;3.60;;;;;;;;;;5090392;28;20074;-63
2021/03/22 07:07:10;;;;;;;16.35;2.95;;;;;;;;;;5093733;28;20438;-64
2021/03/22 07:09:57;;;;;;;11.23;2.88;;;;;;;;;;5095691;28;20048;-63
2021/03/22 07:12:42;;;;;;;8.82;2.40;;;;;;;;;;5094942;28;20135;-63
2021/03/22 07:15:28;;;;;;;8.63;2.42;;;;;;;;;;5095318;28;20127;-63
2021/03/22 07:18:21;;;;;;;7.75;2.15;;;;;;;;;;5095390;28;20048;-65
2021/03/22 07:21:09;;;;;;;12.70;2.40;;;;;;;;;;5095130;28;20044;-65
2021/03/22 07:23:58;;;;;;;5.20;1.95;;;;;;;;;;5095205;28;20040;-65
2021/03/22 07:26:45;;;;;;;4.78;2.00;;;;;;;;;;5087947;28;20072;-64
2021/03/22 07:29:42;;;;;;;14.15;2.35;;;;;;;;;;5074189;28;20044;-64
2021/03/22 07:32:45;;;;;;;6.95;2.60;;;;;;;;;;5084363;28;20169;-65
2021/03/22 07:35:30;;;;;;;8.25;2.10;;;;;;;;;;5095010;28;20066;-65
2021/03/22 07:38:24;;;;;;;6.68;2.00;;;;;;;;;;5095171;28;20063;-66
2021/03/22 07:41:19;;;;;;;7.60;2.42;;;;;;;;;;5094037;28;20048;-64
2021/03/22 07:44:11;;;;;;;7.28;2.03;;;;;;;;;;5094828;28;20047;-65
2021/03/22 07:47:03;;;;;;;7.32;1.75;;;;;;;;;;5122477;27;20052;-65
2021/03/22 07:49:51;;;;;;;8.45;1.75;;;;;;;;;;5094842;28;20052;-65
2021/03/22 07:52:36;;;;;;;4.40;1.60;;;;;;;;;;5091546;28;20051;-64
2021/03/22 07:55:50;;;;;;;5.65;1.75;;;;;;;;;;5089086;28;20044;-64
2021/03/22 07:58:54;;;;;;;5.63;1.70;;;;;;;;;;5036721;28;20039;-64
2021/03/22 08:01:55;;;;;;;13.75;2.30;;;;;;;;;;5087350;28;20444;-64
2021/03/22 08:04:43;;;;;;;11.00;2.00;;;;;;;;;;5099440;22;20080;-64
2021/03/22 08:07:40;;;;;;;6.15;1.85;;;;;;;;;;5058434;28;20478;-64
2021/03/22 08:10:33;;;;;;;8.30;2.17;;;;;;;;;;5058620;28;20490;-64
2021/03/22 08:13:25;;;;;;;5.63;2.17;;;;;;;;;;5068959;28;20045;-64
2021/03/22 08:16:21;;;;;;;7.03;1.33;;;;;;;;;;5056696;28;20048;-64
2021/03/22 08:19:23;;;;;;;6.70;1.20;;;;;;;;;;5054870;28;20049;-64
2021/03/22 08:22:14;;;;;;;4.85;1.33;;;;;;;;;;5052662;28;20498;-64
2021/03/22 08:25:11;;;;;;;5.60;1.42;;;;;;;;;;5052670;28;20049;-64
2021/03/22 08:28:15;;;;;;;7.95;1.48;;;;;;;;;;5051496;28;20040;-64
2021/03/22 08:31:05;;;;;;;6.35;1.60;;;;;;;;;;5052821;28;20045;-64
2021/03/22 08:34:05;;;;;;;5.57;1.08;;;;;;;;;;5054401;28;20044;-64
2021/03/22 08:36:55;;;;;;;4.63;1.00;;;;;;;;;;5060233;28;20040;-64
2021/03/22 08:39:45;;;;;;;6.90;1.60;;;;;;;;;;5051005;28;20044;-64
2021/03/22 08:42:37;;;;;;;3.03;1.08;;;;;;;;;;5055549;28;20069;-64
2021/03/22 08:45:43;;;;;;;7.07;2.00;;;;;;;;;;5049991;28;20041;-64
2021/03/22 08:48:30;;;;;;;7.35;1.20;;;;;;;;;;5055721;28;20040;-64
2021/03/22 08:51:19;;;;;;;4.05;1.90;;;;;;;;;;5052044;28;20045;-64
2021/03/22 08:54:04;;;;;;;6.53;1.40;;;;;;;;;;5051990;28;20049;-64
2021/03/22 08:57:02;;;;;;;4.13;1.20;;;;;;;;;;5056426;28;20418;-64
2021/03/22 08:59:48;;;;;;;4.03;1.00;;;;;;;;;;5048472;28;20048;-64
2021/03/22 09:02:33;;;;;;;4.03;1.35;;;;;;;;;;5051616;28;20044;-64
2021/03/22 09:05:19;;;;;;;2.20;0.60;;;;;;;;;;5059428;28;20429;-64
2021/03/22 09:08:20;;;;;;;1.17;0.55;;;;;;;;;;5072187;28;20048;-64
2021/03/22 09:11:16;;;;;;;2.92;0.60;;;;;;;;;;5067443;28;20045;-64
2021/03/22 09:14:10;;;;;;;4.57;0.50;;;;;;;;;;5050854;28;20041;-64
2021/03/22 09:16:56;;;;;;;3.22;1.10;;;;;;;;;;5054826;28;20495;-64
2021/03/22 09:19:43;;;;;;;1.65;0.80;;;;;;;;;;5051447;28;20491;-64
2021/03/22 09:22:28;;;;;;;5.28;0.75;;;;;;;;;;5050067;28;20048;-64
2021/03/22 09:25:14;;;;;;;1.98;0.52;;;;;;;;;;5050297;28;20041;-64
2021/03/22 09:28:18;;;;;;;2.75;0.90;;;;;;;;;;5037375;28;20140;-64
2021/03/22 09:31:04;;;;;;;8.25;1.20;;;;;;;;;;5049140;28;20049;-64
2021/03/22 09:33:53;;;;;;;7.38;1.15;;;;;;;;;;5050643;28;20057;-64
2021/03/22 09:36:41;;;;;;;3.53;1.05;;;;;;;;;;5055566;28;20048;-64
2021/03/22 09:39:26;;;;;;;5.93;1.40;;;;;;;;;;5047305;28;20048;-64
2021/03/22 09:42:11;;;;;;;2.97;0.77;;;;;;;;;;5051490;28;20423;-64
2021/03/22 09:44:57;;;;;;;5.45;1.00;;;;;;;;;;5051402;28;20380;-64
2021/03/22 09:47:42;;;;;;;4.75;1.08;;;;;;;;;;5051434;28;20044;-64
2021/03/22 09:50:28;;;;;;;6.18;0.90;;;;;;;;;;5058669;28;20033;-64
2021/03/22 09:53:22;;;;;;;9.52;1.48;;;;;;;;;;5046564;28;20487;-64
2021/03/22 09:56:08;;;;;;;4.88;0.90;;;;;;;;;;5052642;28;20041;-64
2021/03/22 09:58:54;;;;;;;3.92;0.98;;;;;;;;;;5060746;28;20041;-64
2021/03/22 10:01:40;;;;;;;6.60;1.27;;;;;;;;;;5044102;28;20045;-64
2021/03/22 10:04:29;;;;;;;3.70;1.00;;;;;;;;;;5050735;28;20045;-64
2021/03/22 10:07:21;;;;;;;9.82;1.10;;;;;;;;;;5051727;28;20044;-64
2021/03/22 10:10:21;;;;;;;5.78;1.00;;;;;;;;;;5063313;28;20048;-64
2021/03/22 10:13:08;;;;;;;6.00;0.70;;;;;;;;;;5051670;28;20419;-64
2021/03/22 10:16:02;;;;;;;4.97;1.20;;;;;;;;;;5049462;28;20041;-64
2021/03/22 10:18:53;;;;;;;4.55;1.20;;;;;;;;;;5051987;28;20551;-64
2021/03/22 10:21:39;;;;;;;6.50;0.80;;;;;;;;;;5050176;28;20045;-64
2021/03/22 10:24:27;;;;;;;5.72;0.80;;;;;;;;;;5050241;28;20053;-64
2021/03/22 10:27:20;;;;;;;7.10;1.65;;;;;;;;;;5048784;28;20498;-64
2021/03/22 10:30:05;;;;;;;;;;;;;;;;;;5050683;28;20052;-64
2021/03/22 10:32:57;;;;;;;5.25;0.88;;;;;;;;;;5046203;28;19920;-64
2021/03/22 10:35:47;;;;;;;6.47;1.53;;;;;;;;;;5052751;28;20503;-64
2021/03/22 10:38:41;;;;;;;3.70;1.05;;;;;;;;;;5051094;28;20345;-64
2021/03/22 10:41:27;;;;;;;3.17;0.98;;;;;;;;;;5056954;28;20103;-64
2021/03/22 10:44:15;;;;;;;3.38;0.77;;;;;;;;;;5055704;28;20045;-64
2021/03/22 10:47:06;;;;;;;4.88;0.85;;;;;;;;;;5053065;28;20037;-64
2021/03/22 10:49:51;;;;;;;6.32;1.00;;;;;;;;;;5054108;28;20052;-64
2021/03/22 10:52:52;;;;;;;3.08;0.73;;;;;;;;;;5049587;28;20037;-64
2021/03/22 10:55:39;;;;;;;2.55;0.80;;;;;;;;;;5055290;28;20045;-64
2021/03/22 10:58:36;;;;;;;4.07;0.85;;;;;;;;;;5061979;28;20147;-64
2021/03/22 11:01:21;;;;;;;4.22;1.02;;;;;;;;;;5065159;28;20041;-64
2021/03/22 11:04:08;;;;;;;4.47;0.90;;;;;;;;;;5055208;28;20049;-64
2021/03/22 11:06:53;;;;;;;4.22;1.23;;;;;;;;;;5053993;28;20036;-63
2021/03/22 11:09:38;;;;;;;3.35;0.85;;;;;;;;;;5054780;28;20364;-63
2021/03/22 11:12:24;;;;;;;5.38;1.27;;;;;;;;;;5050025;28;20104;-63
2021/03/22 11:15:16;;;;;;;3.45;0.80;;;;;;;;;;5053685;28;20041;-63
2021/03/22 11:18:05;;;;;;;6.43;1.02;;;;;;;;;;5054645;28;20048;-63
2021/03/22 11:20:52;;;;;;;6.25;1.80;;;;;;;;;;5054881;28;20127;-63
2021/03/22 11:23:42;;;;;;;4.35;1.00;;;;;;;;;;5032537;28;20122;-63
2021/03/22 11:26:28;;;;;;;4.55;0.90;;;;;;;;;;5037633;28;20041;-63
2021/03/22 11:29:16;;;;;;;5.78;1.20;;;;;;;;;;5054533;28;20415;-64
2021/03/22 11:32:03;;;;;;;3.67;1.65;;;;;;;;;;5053672;28;20040;-63
2021/03/22 11:34:49;;;;;;;4.63;1.27;;;;;;;;;;5052572;28;20041;-63
2021/03/22 11:37:34;;;;;;;5.65;1.40;;;;;;;;;;5053946;28;20041;-64
2021/03/22 11:40:21;;;;;;;6.93;1.20;;;;;;;;;;5050318;28;20049;-64
2021/03/22 11:43:25;;;;;;;6.68;1.35;;;;;;;;;;5051448;28;20483;-64
2021/03/22 11:46:14;;;;;;;6.13;1.67;;;;;;;;;;5053366;28;20041;-64
2021/03/22 11:49:00;;;;;;;7.63;1.45;;;;;;;;;;5053554;28;20041;-64
2021/03/22 11:51:51;;;;;;;8.55;1.63;;;;;;;;;;5052852;28;20411;-63
2021/03/22 11:54:49;;;;;;;4.03;1.30;;;;;;;;;;5039188;28;20038;-64
2021/03/22 11:57:34;;;;;;;7.47;1.40;;;;;;;;;;5053185;28;20041;-63
2021/03/22 12:00:23;;;;;;;7.10;1.52;;;;;;;;;;5053242;28;20409;-64
2021/03/22 12:03:24;;;;;;;6.90;1.17;;;;;;;;;;5052695;28;20045;-63
2021/03/22 12:06:13;;;;;;;5.75;1.10;;;;;;;;;;5051448;28;20056;-63
2021/03/22 12:08:58;;;;;;;6.45;1.30;;;;;;;;;;5053528;28;20041;-64
2021/03/22 12:11:44;;;;;;;3.00;0.77;;;;;;;;;;5053197;28;20076;-64
2021/03/22 12:14:29;;;;;;;3.72;1.15;;;;;;;;;;5036585;28;20072;-63
2021/03/22 12:17:17;;;;;;;2.83;0.90;;;;;;;;;;5053724;28;20079;-64
2021/03/22 12:20:02;;;;;;;7.20;1.90;;;;;;;;;;5052434;28;20053;-64
2021/03/22 12:22:48;;;;;;;5.15;0.80;;;;;;;;;;5053207;28;20545;-64
2021/03/22 12:25:36;;;;;;;4.95;0.90;;;;;;;;;;5053463;28;20041;-63
2021/03/22 12:28:21;;;;;;;4.95;1.27;;;;;;;;;;5053418;28;20417;-64
2021/03/22 12:31:06;;;;;;;7.15;1.30;;;;;;;;;;5052285;28;20045;-65
2021/03/22 12:33:52;;;;;;;3.53;0.70;;;;;;;;;;5052448;28;20669;-64
2021/03/22 12:36:37;;;;;;;4.70;0.70;;;;;;;;;;5052752;28;20045;-63
2021/03/22 12:39:28;;;;;;;2.38;0.63;;;;;;;;;;5054522;28;20143;-64
2021/03/22 12:42:14;;;;;;;3.20;0.50;;;;;;;;;;5059618;28;20053;-63
2021/03/22 12:45:01;;;;;;;2.42;0.57;;;;;;;;;;5060935;28;20554;-63
2021/03/22 12:47:46;;;;;;;3.38;0.80;;;;;;;;;;5054893;28;20040;-63
2021/03/22 12:50:32;;;;;;;3.42;0.95;;;;;;;;;;5054291;28;20041;-63
2021/03/22 12:53:18;;;;;;;6.78;1.38;;;;;;;;;;5052673;28;20037;-64
2021/03/22 12:56:05;;;;;;;5.45;1.95;;;;;;;;;;5053985;28;20041;-64
2021/03/22 12:58:50;;;;;;;5.07;1.08;;;;;;;;;;5059568;28;20402;-64
2021/03/22 13:01:35;;;;;;;4.07;0.77;;;;;;;;;;5058847;28;20037;-64
2021/03/22 13:04:21;;;;;;;5.20;0.80;;;;;;;;;;5058193;28;20564;-64
2021/03/22 13:07:06;;;;;;;2.55;0.80;;;;;;;;;;5062414;28;20056;-65
2021/03/22 13:09:52;;;;;;;2.75;0.50;;;;;;;;;;5055084;28;20048;-65
2021/03/22 13:12:37;;;;;;;2.67;0.70;;;;;;;;;;5059259;28;20138;-65
2021/03/22 13:15:34;;;;;;;3.65;0.80;;;;;;;;;;5062145;28;20119;-65
2021/03/22 13:18:23;;;;;;;3.80;0.70;;;;;;;;;;5058205;28;20048;-64
2021/03/22 13:21:15;;;;;;;3.08;0.77;;;;;;;;;;5059672;28;20048;-64
2021/03/22 13:24:01;;;;;;;4.78;0.98;;;;;;;;;;5055912;28;20049;-64
2021/03/22 13:26:46;;;;;;;6.03;0.82;;;;;;;;;;5060135;28;20041;-65
2021/03/22 13:29:31;;;;;;;5.63;0.90;;;;;;;;;;5067147;28;20052;-65
2021/03/22 13:32:17;;;;;;;4.35;0.77;;;;;;;;;;5052288;28;20049;-64
2021/03/22 13:35:02;;;;;;;5.22;0.88;;;;;;;;;;5049018;28;20045;-65
2021/03/22 13:37:47;;;;;;;3.92;0.73;;;;;;;;;;5044418;28;20532;-65
2021/03/22 13:40:33;;;;;;;2.20;0.70;;;;;;;;;;5051703;28;20045;-65
2021/03/22 13:43:21;;;;;;;3.42;0.60;;;;;;;;;;5057653;28;20555;-65
2021/03/22 13:46:07;;;;;;;1.23;0.57;;;;;;;;;;5047189;28;20060;-65
2021/03/22 13:48:52;;;;;;;2.95;0.75;;;;;;;;;;5050920;28;20116;-64
2021/03/22 13:51:38;;;;;;;1.70;0.63;;;;;;;;;;5050438;28;20571;-64
2021/03/22 13:54:26;;;;;;;4.00;0.70;;;;;;;;;;5034934;28;20116;-64
2021/03/22 13:57:13;;;;;;;3.50;0.68;;;;;;;;;;5050970;28;20515;-64
2021/03/22 13:59:58;;;;;;;3.95;0.68;;;;;;;;;;5045692;28;20048;-64
2021/03/22 14:02:43;;;;;;;3.95;0.75;;;;;;;;;;5047991;28;20045;-65
2021/03/22 14:05:28;;;;;;;2.85;0.60;;;;;;;;;;5048159;28;20406;-64
2021/03/22 14:08:14;;;;;;;3.17;0.70;;;;;;;;;;5053986;28;20519;-63
2021/03/22 14:11:00;;;;;;;5.57;0.68;;;;;;;;;;5051104;28;20053;-63
2021/03/22 14:13:45;;;;;;;4.82;0.95;;;;;;;;;;5052517;28;20411;-64
2021/03/22 14:16:31;;;;;;;2.35;0.85;;;;;;;;;;5050763;28;20491;-64
2021/03/22 14:19:16;;;;;;;2.70;0.68;;;;;;;;;;5050436;28;20052;-64
2021/03/22 14:22:01;;;;;;;4.10;1.10;;;;;;;;;;5049601;28;20061;-63
2021/03/22 14:24:46;;;;;;;3.08;1.17;;;;;;;;;;5056616;28;20446;-63
2021/03/22 14:27:32;;;;;;;6.18;2.28;;;;;;;;;;5049894;28;20086;-63
2021/03/22 14:30:25;;;;;;;4.97;2.50;;;;;;;;;;5049997;28;20033;-63
2021/03/22 14:33:11;;;;;;;2.58;1.20;;;;;;;;;;5053487;28;20052;-63
2021/03/22 14:35:56;;;;;;;8.95;1.63;;;;;;;;;;5050546;28;20049;-63
2021/03/22 14:38:42;;;;;;;6.53;2.65;;;;;;;;;;5048509;28;20473;-63
2021/03/22 14:41:28;;;;;;;4.28;2.10;;;;;;;;;;5049028;28;20049;-63
2021/03/22 14:44:13;;;;;;;5.20;1.25;;;;;;;;;;5062233;28;20127;-63
2021/03/22 14:46:59;;;;;;;8.38;3.42;;;;;;;;;;5050161;28;20045;-63
2021/03/22 14:49:44;;;;;;;9.00;5.10;;;;;;;;;;5051120;28;20048;-63
2021/03/22 14:52:29;;;;;;;12.10;5.20;;;;;;;;;;5050959;28;20045;-63
2021/03/22 14:55:15;;;;;;;9.80;2.60;;;;;;;;;;5049946;28;20041;-63
2021/03/22 14:58:01;;;;;;;5.18;1.63;;;;;;;;;;5054076;28;20041;-63
2021/03/22 15:00:46;;;;;;;4.00;1.45;;;;;;;;;;5050899;28;20045;-63
2021/03/22 15:03:32;;;;;;;5.38;0.90;;;;;;;;;;5052547;28;20515;-63
2021/03/22 15:06:17;;;;;;;5.38;0.90;;;;;;;;;;5062241;28;20495;-63
2021/03/22 15:09:03;;;;;;;5.93;1.00;;;;;;;;;;5058001;28;20049;-63
2021/03/22 15:11:50;;;;;;;6.47;0.80;;;;;;;;;;5049707;28;20593;-63
2021/03/22 15:14:35;;;;;;;2.75;0.90;;;;;;;;;;5048972;28;20159;-63
2021/03/22 15:17:21;;;;;;;3.75;0.93;;;;;;;;;;5049503;28;20052;-63
2021/03/22 15:20:08;;;;;;;3.22;0.70;;;;;;;;;;5049230;28;20053;-63
2021/03/22 15:22:53;;;;;;;5.93;0.98;;;;;;;;;;5050267;28;20045;-63
2021/03/22 15:25:39;;;;;;;5.45;0.70;;;;;;;;;;5052168;28;20041;-63
2021/03/22 15:28:26;;;;;;;5.72;0.98;;;;;;;;;;5053008;28;20495;-63
2021/03/22 15:31:11;;;;;;;1.85;0.70;;;;;;;;;;5056259;28;20048;-64
2021/03/22 15:33:57;;;;;;;2.58;0.90;;;;;;;;;;5054667;28;20045;-64
2021/03/22 15:36:42;;;;;;;3.85;0.88;;;;;;;;;;5054669;28;20041;-64
2021/03/22 15:39:28;;;;;;;1.65;0.75;;;;;;;;;;5047434;28;20132;-64
2021/03/22 15:42:13;;;;;;;4.95;0.85;;;;;;;;;;5054157;28;20410;-64
2021/03/22 15:44:58;;;;;;;1.85;0.50;;;;;;;;;;5054374;28;20048;-64
2021/03/22 15:47:44;;;;;;;3.85;0.73;;;;;;;;;;5049414;28;20076;-64
2021/03/22 15:50:30;;;;;;;2.28;0.70;;;;;;;;;;5046203;28;20037;-64
2021/03/22 15:53:15;;;;;;;4.75;0.70;;;;;;;;;;5053137;28;20045;-64
2021/03/22 15:56:00;;;;;;;2.55;0.80;;;;;;;;;;5054046;28;20045;-64
2021/03/22 15:58:46;;;;;;;4.80;0.82;;;;;;;;;;5062131;28;20470;-64
2021/03/22 16:01:32;;;;;;;5.88;0.90;;;;;;;;;;5053309;28;20166;-64
2021/03/22 16:04:17;;;;;;;6.22;1.10;;;;;;;;;;5047656;28;20037;-64
2021/03/22 16:07:02;;;;;;;2.40;0.85;;;;;;;;;;5060367;28;20491;-63
2021/03/22 16:09:48;;;;;;;4.03;1.00;;;;;;;;;;5060071;28;20048;-63
2021/03/22 16:12:33;;;;;;;2.97;0.98;;;;;;;;;;5052973;28;20045;-63
2021/03/22 16:15:19;;;;;;;4.90;1.10;;;;;;;;;;5070880;28;20052;-64
2021/03/22 16:18:05;;;;;;;2.65;0.70;;;;;;;;;;5055821;28;20060;-64
2021/03/22 16:20:51;;;;;;;3.08;0.77;;;;;;;;;;5056432;28;20067;-64
2021/03/22 16:23:36;;;;;;;7.43;1.10;;;;;;;;;;5053600;28;20132;-63
2021/03/22 16:26:21;;;;;;;2.55;0.68;;;;;;;;;;5036738;28;20045;-63
2021/03/22 16:29:07;;;;;;;5.10;1.10;;;;;;;;;;5053613;28;20565;-64
2021/03/22 16:31:52;;;;;;;2.00;0.68;;;;;;;;;;5053270;28;20049;-64
2021/03/22 16:34:39;;;;;;;2.10;0.85;;;;;;;;;;5038307;28;20041;-64
2021/03/22 16:37:25;;;;;;;2.70;0.80;;;;;;;;;;5053373;28;20477;-63
2021/03/22 16:40:10;;;;;;;3.13;1.00;;;;;;;;;;5053314;28;20116;-63
2021/03/22 16:42:56;;;;;;;1.60;0.93;;;;;;;;;;5052695;28;20040;-63